createdAt,value
2022-09-21T00:00:51.879Z,7.95
2022-09-21T00:03:18.857Z,7.95
2022-09-21T00:05:45.688Z,7.94
2022-09-21T00:08:13.910Z,7.94
2022-09-21T00:10:40.387Z,7.92
2022-09-21T00:13:08.304Z,7.90
2022-09-21T00:15:34.929Z,7.91
2022-09-21T00:18:01.788Z,7.86
2022-09-21T00:20:29.134Z,7.68
2022-09-21T00:22:55.562Z,7.74
2022-09-21T00:25:21.925Z,7.83
2022-09-21T00:27:51.154Z,7.79
2022-09-21T00:30:18.189Z,7.75
2022-09-21T00:32:44.698Z,7.74
2022-09-21T00:35:11.053Z,7.70
2022-09-21T00:37:37.554Z,7.69
2022-09-21T00:40:04.675Z,7.64
2022-09-21T00:42:34.136Z,7.60
2022-09-21T00:45:01.092Z,7.58
2022-09-21T00:47:40.536Z,7.50
2022-09-21T00:50:11.884Z,7.38
2022-09-21T00:52:43.731Z,7.45
2022-09-21T00:55:23.815Z,7.47
2022-09-21T00:57:56.682Z,7.40
2022-09-21T01:00:23.368Z,7.40
2022-09-21T01:02:49.800Z,7.41
2022-09-21T01:05:16.147Z,7.20
2022-09-21T01:07:46.198Z,7.38
2022-09-21T01:10:17.524Z,7.28
2022-09-21T01:12:50.002Z,7.36
2022-09-21T01:15:36.577Z,7.33
2022-09-21T01:18:17.984Z,7.29
2022-09-21T01:21:09.022Z,7.27
2022-09-21T01:23:38.400Z,7.24
2022-09-21T01:26:29.791Z,7.24
2022-09-21T01:29:02.182Z,7.22
2022-09-21T01:31:35.190Z,7.21
2022-09-21T01:34:12.246Z,7.07
2022-09-21T01:36:41.960Z,7.17
2022-09-21T01:39:13.103Z,7.15
2022-09-21T01:41:44.377Z,7.16
2022-09-21T01:44:17.462Z,7.11
2022-09-21T01:46:46.324Z,7.13
2022-09-21T01:49:29.684Z,7.10
2022-09-21T01:52:02.338Z,7.09
2022-09-21T01:54:38.074Z,7.08
2022-09-21T01:57:16.202Z,7.09
2022-09-21T02:00:05.602Z,7.09
2022-09-21T02:02:38.500Z,7.05
2022-09-21T02:05:06.396Z,7.04
2022-09-21T02:07:34.632Z,7.01
2022-09-21T02:10:03.546Z,6.99
2022-09-21T02:12:32.954Z,6.98
2022-09-21T02:15:00.600Z,6.96
2022-09-21T02:17:41.123Z,6.78
2022-09-21T02:20:07.694Z,6.92
2022-09-21T02:23:03.468Z,6.91
2022-09-21T02:25:48.737Z,6.91
2022-09-21T02:28:47.423Z,6.91
2022-09-21T02:31:23.035Z,6.87
2022-09-21T02:34:10.531Z,6.86
2022-09-21T02:36:49.003Z,6.72
2022-09-21T02:39:19.531Z,6.84
2022-09-21T02:42:05.888Z,6.85
2022-09-21T02:44:46.378Z,6.82
2022-09-21T02:47:22.173Z,6.83
2022-09-21T02:49:54.704Z,6.81
2022-09-21T02:52:23.419Z,6.77
2022-09-21T02:54:53.689Z,6.87
2022-09-21T02:57:21.781Z,6.98
2022-09-21T02:59:48.580Z,6.92
2022-09-21T03:02:15.453Z,6.89
2022-09-21T03:04:47.099Z,6.89
2022-09-21T03:07:15.578Z,6.92
2022-09-21T03:09:42.119Z,6.90
2022-09-21T03:12:08.591Z,6.88
2022-09-21T03:14:34.995Z,6.92
2022-09-21T03:17:01.396Z,6.92
2022-09-21T03:19:29.311Z,6.94
2022-09-21T03:21:55.665Z,7.01
2022-09-21T03:24:40.778Z,7.07
2022-09-21T03:27:08.805Z,7.13
2022-09-21T03:29:35.258Z,6.97
2022-09-21T03:32:01.859Z,7.24
2022-09-21T03:34:28.194Z,7.30
2022-09-21T03:36:55.054Z,7.34
2022-09-21T03:39:21.468Z,7.41
2022-09-21T03:41:48.110Z,7.48
2022-09-21T03:44:16.332Z,7.39
2022-09-21T03:46:42.873Z,7.64
2022-09-21T03:49:09.382Z,7.71
2022-09-21T03:51:35.749Z,7.80
2022-09-21T03:54:02.114Z,7.86
2022-09-21T03:56:28.701Z,7.93
2022-09-21T03:58:55.173Z,8.00
2022-09-21T04:01:21.603Z,8.05
2022-09-21T04:03:48.016Z,8.05
2022-09-21T04:06:14.758Z,7.81
2022-09-21T04:08:42.392Z,8.18
2022-09-21T04:11:11.829Z,8.22
2022-09-21T04:13:38.642Z,8.13
2022-09-21T04:16:05.591Z,8.12
2022-09-21T04:18:32.393Z,8.03
2022-09-21T04:20:59.243Z,8.15
2022-09-21T04:23:25.614Z,8.11
2022-09-21T04:25:54.092Z,8.10
2022-09-21T04:28:21.533Z,8.00
2022-09-21T04:30:48.011Z,8.00
2022-09-21T04:33:14.898Z,8.00
2022-09-21T04:35:41.214Z,7.94
2022-09-21T04:38:07.702Z,7.93
2022-09-21T04:40:34.110Z,7.63
2022-09-21T04:43:00.920Z,7.92
2022-09-21T04:45:27.284Z,7.93
2022-09-21T04:47:53.695Z,7.90
2022-09-21T04:50:20.384Z,7.93
2022-09-21T04:52:47.624Z,7.95
2022-09-21T04:55:14.028Z,7.99
2022-09-21T04:57:40.439Z,7.99
2022-09-21T05:00:07.606Z,8.03
2022-09-21T05:02:34.050Z,8.02
2022-09-21T05:05:00.495Z,8.07
2022-09-21T05:07:26.838Z,8.07
2022-09-21T05:10:05.299Z,8.04
2022-09-21T05:12:33.250Z,8.06
2022-09-21T05:14:59.796Z,8.03
2022-09-21T05:17:26.202Z,8.02
2022-09-21T05:19:53.651Z,7.99
2022-09-21T05:22:20.604Z,7.95
2022-09-21T05:24:47.733Z,7.96
2022-09-21T05:27:14.446Z,7.98
2022-09-21T05:29:41.700Z,7.77
2022-09-21T05:32:13.889Z,7.99
2022-09-21T05:34:48.030Z,7.84
2022-09-21T05:37:17.114Z,8.03
2022-09-21T05:39:43.730Z,8.02
2022-09-21T05:42:10.883Z,8.07
2022-09-21T05:44:37.788Z,8.10
2022-09-21T05:47:10.889Z,8.17
2022-09-21T05:49:49.083Z,8.20
2022-09-21T05:52:41.691Z,8.27
2022-09-21T05:55:45.025Z,8.32
2022-09-21T05:58:28.334Z,8.31
2022-09-21T06:01:13.998Z,8.34
2022-09-21T06:03:42.222Z,8.38
2022-09-21T06:06:10.147Z,8.25
2022-09-21T06:08:36.532Z,8.46
2022-09-21T06:11:03.073Z,8.51
2022-09-21T06:13:29.466Z,8.55
2022-09-21T06:15:55.807Z,8.58
2022-09-21T06:18:22.161Z,8.56
2022-09-21T06:20:48.525Z,8.65
2022-09-21T06:23:15.568Z,8.68
2022-09-21T06:25:41.983Z,8.75
2022-09-21T06:28:11.276Z,8.60
2022-09-21T06:30:39.366Z,8.87
2022-09-21T06:33:07.233Z,8.95
2022-09-21T06:35:35.445Z,8.98
2022-09-21T06:38:04.942Z,9.00
2022-09-21T06:40:32.562Z,9.14
2022-09-21T06:43:00.526Z,9.22
2022-09-21T06:45:28.033Z,9.27
2022-09-21T06:47:54.502Z,9.33
2022-09-21T06:50:21.689Z,9.40
2022-09-21T06:52:48.150Z,9.51
2022-09-21T06:55:15.039Z,9.59
2022-09-21T06:57:41.412Z,9.66
2022-09-21T07:00:10.795Z,9.79
2022-09-21T07:02:37.289Z,9.84
2022-09-21T07:05:04.622Z,10.00
2022-09-21T07:07:31.549Z,10.08
2022-09-21T07:10:12.088Z,10.21
2022-09-21T07:12:41.354Z,10.32
2022-09-21T07:15:10.329Z,10.46
2022-09-21T07:17:38.643Z,10.57
2022-09-21T07:20:07.735Z,10.71
2022-09-21T07:22:34.353Z,10.82
2022-09-21T07:25:01.534Z,10.93
2022-09-21T07:27:29.687Z,11.03
2022-09-21T07:29:56.073Z,11.13
2022-09-21T07:32:22.512Z,11.23
2022-09-21T07:34:49.192Z,11.34
2022-09-21T07:37:16.133Z,11.41
2022-09-21T07:39:42.510Z,11.52
2022-09-21T07:42:08.953Z,11.65
2022-09-21T07:44:35.359Z,11.66
2022-09-21T07:47:03.471Z,11.87
2022-09-21T07:49:30.597Z,11.96
2022-09-21T07:52:01.396Z,12.07
2022-09-21T07:54:30.435Z,12.14
2022-09-21T07:57:15.666Z,12.14
2022-09-21T07:59:42.040Z,12.35
2022-09-21T08:02:08.488Z,12.41
2022-09-21T08:04:34.974Z,12.54
2022-09-21T08:07:01.341Z,12.64
2022-09-21T08:09:27.661Z,12.72
2022-09-21T08:11:55.696Z,12.79
2022-09-21T08:14:26.127Z,12.91
2022-09-21T08:16:53.376Z,12.95
2022-09-21T08:19:20.553Z,12.87
2022-09-21T08:21:53.506Z,13.16
2022-09-21T08:24:22.885Z,13.24
2022-09-21T08:26:52.112Z,13.18
2022-09-21T08:29:18.773Z,13.41
2022-09-21T08:31:46.538Z,13.49
2022-09-21T08:34:13.177Z,13.60
2022-09-21T08:36:39.836Z,13.67
2022-09-21T08:39:07.955Z,13.77
2022-09-21T08:41:40.550Z,13.95
2022-09-21T08:44:20.964Z,14.07
2022-09-21T08:47:09.598Z,14.16
2022-09-21T08:49:40.252Z,14.21
2022-09-21T08:52:15.660Z,14.44
2022-09-21T08:54:57.086Z,14.61
2022-09-21T08:57:29.137Z,14.69
2022-09-21T08:59:55.763Z,14.82
2022-09-21T09:02:47.623Z,14.90
2022-09-21T09:05:23.069Z,15.12
2022-09-21T09:07:53.154Z,15.28
2022-09-21T09:10:39.538Z,15.43
2022-09-21T09:13:20.874Z,15.64
2022-09-21T09:15:53.186Z,15.89
2022-09-21T09:18:42.755Z,16.28
2022-09-21T09:21:15.352Z,16.73
2022-09-21T09:23:51.676Z,16.91
2022-09-21T09:26:47.622Z,17.39
2022-09-21T09:29:47.874Z,17.76
2022-09-21T09:32:15.517Z,18.34
2022-09-21T09:34:53.752Z,18.57
2022-09-21T09:37:30.153Z,18.97
2022-09-21T09:40:00.264Z,19.34
2022-09-21T09:43:01.289Z,19.69
2022-09-21T09:45:43.486Z,20.08
2022-09-21T09:48:27.045Z,20.38
2022-09-21T09:50:53.437Z,20.51
2022-09-21T09:53:23.864Z,20.63
2022-09-21T09:55:52.480Z,20.72
2022-09-21T09:58:27.950Z,20.91
2022-09-21T10:00:57.697Z,21.05
2022-09-21T10:03:27.290Z,21.23
2022-09-21T10:05:54.891Z,21.35
2022-09-21T10:08:36.299Z,21.69
2022-09-21T10:11:03.726Z,21.79
2022-09-21T10:13:37.767Z,22.07
2022-09-21T10:16:23.635Z,22.43
2022-09-21T10:18:57.310Z,22.55
2022-09-21T10:21:26.841Z,22.68
2022-09-21T10:23:59.329Z,22.73
2022-09-21T10:26:38.779Z,22.86
2022-09-21T10:29:23.322Z,23.06
2022-09-21T10:32:03.469Z,23.06
2022-09-21T10:34:32.290Z,22.92
2022-09-21T10:37:02.118Z,23.07
2022-09-21T10:39:31.154Z,23.15
2022-09-21T10:42:00.495Z,23.30
2022-09-21T10:44:35.080Z,23.54
2022-09-21T10:47:16.803Z,23.72
2022-09-21T10:49:48.247Z,24.00
2022-09-21T10:52:14.813Z,24.08
2022-09-21T10:54:41.993Z,24.17
2022-09-21T10:57:14.837Z,24.28
2022-09-21T10:59:41.363Z,24.16
2022-09-21T11:02:26.640Z,24.25
2022-09-21T11:05:07.994Z,24.15
2022-09-21T11:07:41.219Z,24.16
2022-09-21T11:10:34.170Z,24.15
2022-09-21T11:13:18.791Z,24.11
2022-09-21T11:16:01.902Z,24.06
2022-09-21T11:18:46.696Z,24.16
2022-09-21T11:21:27.355Z,24.35
2022-09-21T11:24:31.802Z,24.50
2022-09-21T11:27:28.182Z,24.92
2022-09-21T11:30:01.748Z,24.86
2022-09-21T11:33:05.315Z,25.00
2022-09-21T11:35:58.660Z,25.12
2022-09-21T11:38:39.907Z,25.03
2022-09-21T11:41:36.250Z,25.09
2022-09-21T11:44:17.066Z,25.28
2022-09-21T11:47:12.279Z,25.28
2022-09-21T11:49:47.518Z,25.27
2022-09-21T11:52:26.287Z,25.27
2022-09-21T11:55:14.984Z,25.53
2022-09-21T11:57:55.083Z,25.49
2022-09-21T12:00:23.197Z,25.52
2022-09-21T12:03:19.400Z,25.66
2022-09-21T12:05:58.223Z,25.74
2022-09-21T12:08:55.322Z,25.75
2022-09-21T12:11:27.749Z,25.68
2022-09-21T12:14:09.511Z,25.63
2022-09-21T12:16:44.089Z,25.40
2022-09-21T12:19:23.935Z,25.15
2022-09-21T12:21:53.415Z,25.39
2022-09-21T12:24:32.121Z,24.99
2022-09-21T12:27:05.369Z,24.77
2022-09-21T12:29:47.637Z,24.49
2022-09-21T12:32:56.196Z,24.33
2022-09-21T12:35:49.673Z,24.30
2022-09-21T12:38:27.554Z,24.19
2022-09-21T12:41:16.293Z,23.99
2022-09-21T12:43:55.089Z,23.97
2022-09-21T12:46:26.137Z,24.03
2022-09-21T12:48:53.014Z,24.09
2022-09-21T12:51:34.457Z,24.24
2022-09-21T12:54:19.705Z,24.41
2022-09-21T12:57:29.750Z,24.48
2022-09-21T13:00:15.902Z,24.30
2022-09-21T13:03:11.406Z,24.34
2022-09-21T13:06:20.212Z,24.28
2022-09-21T13:11:21.822Z,24.07
2022-09-21T13:13:53.260Z,24.13
2022-09-21T13:16:29.767Z,24.31
2022-09-21T13:19:02.265Z,24.40
2022-09-21T13:21:32.046Z,24.37
2022-09-21T13:23:58.365Z,24.70
2022-09-21T13:26:51.733Z,24.86
2022-09-21T13:29:20.692Z,24.83
2022-09-21T13:32:10.759Z,25.10
2022-09-21T13:34:42.570Z,25.09
2022-09-21T13:37:14.436Z,25.19
2022-09-21T13:40:02.402Z,25.44
2022-09-21T13:42:34.808Z,25.50
2022-09-21T13:45:04.709Z,25.41
2022-09-21T13:47:38.451Z,25.32
2022-09-21T13:50:12.542Z,25.41
2022-09-21T13:52:51.964Z,25.20
2022-09-21T13:55:29.409Z,25.58
2022-09-21T13:57:58.839Z,25.65
2022-09-21T14:00:33.476Z,25.85
2022-09-21T14:03:04.668Z,25.91
2022-09-21T14:05:45.155Z,25.76
2022-09-21T14:08:14.471Z,25.91
2022-09-21T14:10:50.399Z,25.82
2022-09-21T14:13:26.958Z,25.75
2022-09-21T14:15:53.371Z,25.41
2022-09-21T14:18:34.906Z,25.41
2022-09-21T14:21:09.370Z,25.39
2022-09-21T14:23:37.818Z,25.41
2022-09-21T14:26:43.768Z,25.54
2022-09-21T14:29:38.438Z,25.58
2022-09-21T14:32:14.148Z,25.52
2022-09-21T14:34:44.523Z,25.38
2022-09-21T14:37:28.880Z,25.41
2022-09-21T14:39:56.846Z,25.26
2022-09-21T14:42:28.137Z,25.15
2022-09-21T14:45:02.299Z,25.29
2022-09-21T14:47:48.055Z,25.22
2022-09-21T14:50:19.556Z,25.08
2022-09-21T14:53:32.470Z,25.12
2022-09-21T14:56:22.564Z,24.89
2022-09-21T14:59:15.858Z,24.80
2022-09-21T15:01:58.773Z,24.75
2022-09-21T15:04:39.183Z,24.69
2022-09-21T15:07:52.345Z,24.74
2022-09-21T15:10:59.893Z,24.60
2022-09-21T15:13:46.514Z,24.49
2022-09-21T15:16:25.899Z,24.48
2022-09-21T15:19:05.852Z,24.43
2022-09-21T15:21:32.928Z,24.71
2022-09-21T15:24:10.092Z,24.42
2022-09-21T15:26:40.745Z,24.36
2022-09-21T15:29:10.683Z,24.34
2022-09-21T15:31:42.570Z,24.32
2022-09-21T15:34:10.930Z,24.09
2022-09-21T15:36:40.719Z,24.25
2022-09-21T15:39:20.499Z,24.25
2022-09-21T15:41:50.546Z,24.05
2022-09-21T15:44:21.510Z,24.16
2022-09-21T15:46:51.653Z,24.16
2022-09-21T15:49:22.863Z,24.09
2022-09-21T15:51:57.142Z,24.10
2022-09-21T15:54:30.499Z,23.99
2022-09-21T15:57:04.685Z,23.90
2022-09-21T15:59:34.626Z,23.77
2022-09-21T16:02:12.430Z,23.76
2022-09-21T16:04:49.358Z,23.68
2022-09-21T16:07:34.280Z,23.64
2022-09-21T16:10:02.531Z,23.48
2022-09-21T16:12:38.257Z,23.41
2022-09-21T16:15:15.310Z,23.20
2022-09-21T16:17:55.006Z,23.34
2022-09-21T16:20:23.500Z,23.17
2022-09-21T16:22:55.328Z,23.12
2022-09-21T16:25:35.147Z,22.97
2022-09-21T16:28:07.125Z,22.74
2022-09-21T16:30:51.152Z,22.56
2022-09-21T16:33:49.228Z,22.29
2022-09-21T16:36:25.506Z,21.90
2022-09-21T16:38:56.159Z,21.53
2022-09-21T16:41:25.256Z,21.28
2022-09-21T16:43:52.062Z,20.99
2022-09-21T16:46:18.853Z,20.74
2022-09-21T16:48:45.295Z,20.48
2022-09-21T16:51:13.545Z,20.22
2022-09-21T16:53:40.175Z,19.89
2022-09-21T16:56:15.296Z,19.75
2022-09-21T16:58:43.609Z,19.52
2022-09-21T17:01:12.918Z,19.27
2022-09-21T17:03:42.673Z,18.97
2022-09-21T17:06:17.794Z,18.81
2022-09-21T17:08:48.129Z,18.57
2022-09-21T17:11:23.043Z,18.37
2022-09-21T17:13:50.372Z,18.11
2022-09-21T17:16:18.549Z,17.87
2022-09-21T17:18:45.991Z,17.68
2022-09-21T17:21:12.969Z,17.47
2022-09-21T17:23:40.047Z,17.20
2022-09-21T17:26:17.544Z,17.08
2022-09-21T17:28:44.956Z,16.86
2022-09-21T17:31:13.821Z,16.66
2022-09-21T17:33:40.738Z,16.47
2022-09-21T17:36:16.112Z,16.26
2022-09-21T17:38:43.526Z,16.10
2022-09-21T17:41:43.154Z,15.96
2022-09-21T17:44:28.570Z,15.68
2022-09-21T17:46:58.613Z,15.56
2022-09-21T17:49:25.805Z,15.38
2022-09-21T17:52:10.973Z,15.22
2022-09-21T17:54:39.799Z,15.03
2022-09-21T17:57:28.420Z,14.72
2022-09-21T18:00:04.211Z,14.58
2022-09-21T18:02:30.665Z,14.58
2022-09-21T18:05:04.517Z,14.49
2022-09-21T18:07:31.218Z,14.28
2022-09-21T18:09:57.847Z,14.15
2022-09-21T18:12:50.785Z,14.18
2022-09-21T18:15:27.630Z,14.04
2022-09-21T18:18:12.693Z,13.96
2022-09-21T18:21:03.590Z,13.83
2022-09-21T18:23:48.545Z,13.65
2022-09-21T18:26:18.198Z,13.62
2022-09-21T18:28:47.629Z,13.54
2022-09-21T18:31:51.963Z,13.46
2022-09-21T18:34:54.627Z,13.34
2022-09-21T18:37:32.121Z,13.22
2022-09-21T18:40:21.800Z,13.15
2022-09-21T18:43:26.089Z,13.05
2022-09-21T18:46:01.210Z,12.92
2022-09-21T18:48:39.637Z,12.85
2022-09-21T18:51:39.402Z,12.77
2022-09-21T18:54:11.655Z,12.67
2022-09-21T18:56:39.164Z,12.55
2022-09-21T18:59:07.066Z,12.48
2022-09-21T19:01:34.200Z,12.43
2022-09-21T19:04:01.364Z,12.32
2022-09-21T19:06:47.331Z,12.32
2022-09-21T19:09:57.284Z,12.26
2022-09-21T19:12:23.826Z,12.18
2022-09-21T19:15:01.882Z,12.05
2022-09-21T19:18:05.980Z,12.05
2022-09-21T19:20:46.669Z,11.95
2022-09-21T19:23:25.081Z,11.88
2022-09-21T19:25:59.473Z,11.68
2022-09-21T19:28:36.315Z,11.76
2022-09-21T19:31:09.718Z,11.65
2022-09-21T19:33:50.089Z,11.64
2022-09-21T19:36:17.792Z,11.58
2022-09-21T19:38:44.554Z,11.53
2022-09-21T19:41:19.752Z,11.47
2022-09-21T19:43:54.539Z,11.44
2022-09-21T19:46:26.276Z,11.38
2022-09-21T19:48:59.865Z,11.34
2022-09-21T19:51:37.666Z,11.28
2022-09-21T19:54:31.152Z,11.24
2022-09-21T19:57:16.603Z,11.17
2022-09-21T19:59:43.620Z,11.13
2022-09-21T20:02:54.005Z,11.06
2022-09-21T20:05:29.444Z,11.13
2022-09-21T20:08:16.395Z,11.04
2022-09-21T20:10:54.111Z,10.97
2022-09-21T20:13:31.769Z,10.91
2022-09-21T20:16:09.066Z,10.88
2022-09-21T20:18:56.180Z,10.85
2022-09-21T20:21:26.186Z,10.79
2022-09-21T20:23:58.754Z,10.75
2022-09-21T20:26:27.350Z,10.69
2022-09-21T20:28:54.355Z,10.67
2022-09-21T20:31:23.286Z,10.66
2022-09-21T20:33:50.338Z,10.63
2022-09-21T20:36:16.799Z,10.59
2022-09-21T20:38:43.966Z,10.46
2022-09-21T20:41:16.385Z,10.58
2022-09-21T20:43:43.098Z,10.39
2022-09-21T20:46:10.795Z,10.45
2022-09-21T20:48:37.647Z,10.48
2022-09-21T20:51:06.261Z,10.44
2022-09-21T20:53:33.728Z,10.43
2022-09-21T20:56:03.668Z,10.40
2022-09-21T20:58:30.852Z,10.37
2022-09-21T21:01:04.028Z,10.35
2022-09-21T21:03:30.549Z,10.20
2022-09-21T21:06:13.945Z,10.33
2022-09-21T21:08:40.629Z,10.18
2022-09-21T21:11:07.158Z,10.28
2022-09-21T21:13:33.834Z,10.24
2022-09-21T21:16:00.271Z,10.20
2022-09-21T21:18:27.829Z,10.20
2022-09-21T21:20:54.294Z,10.19
2022-09-21T21:23:20.636Z,10.15
2022-09-21T21:25:47.939Z,10.13
2022-09-21T21:28:14.674Z,10.12
2022-09-21T21:30:41.028Z,10.09
2022-09-21T21:33:07.393Z,10.06
2022-09-21T21:35:33.842Z,10.01
2022-09-21T21:38:00.240Z,10.00
2022-09-21T21:40:26.630Z,9.95
2022-09-21T21:42:55.524Z,9.95
2022-09-21T21:45:22.055Z,9.94
2022-09-21T21:47:48.390Z,9.84
2022-09-21T21:50:14.822Z,9.85
2022-09-21T21:52:41.221Z,9.82
2022-09-21T21:55:08.123Z,9.81
2022-09-21T21:57:34.799Z,9.69
2022-09-21T22:00:01.431Z,9.76
2022-09-21T22:02:29.517Z,9.74
2022-09-21T22:04:55.976Z,9.69
2022-09-21T22:07:22.349Z,9.68
2022-09-21T22:09:48.690Z,9.53
2022-09-21T22:12:15.601Z,9.64
2022-09-21T22:14:42.014Z,9.60
2022-09-21T22:17:08.376Z,9.56
2022-09-21T22:19:35.280Z,9.46
2022-09-21T22:22:01.604Z,9.41
2022-09-21T22:24:28.050Z,9.44
2022-09-21T22:26:54.454Z,9.41
2022-09-21T22:29:20.816Z,9.39
2022-09-21T22:31:49.032Z,9.37
2022-09-21T22:34:16.201Z,9.32
2022-09-21T22:36:45.757Z,9.29
2022-09-21T22:39:12.804Z,9.26
2022-09-21T22:41:41.253Z,9.24
2022-09-21T22:44:08.056Z,9.21
2022-09-21T22:46:35.048Z,9.18
2022-09-21T22:49:01.501Z,9.14
2022-09-21T22:51:29.039Z,8.98
2022-09-21T22:53:55.725Z,9.11
2022-09-21T22:56:24.489Z,9.08
2022-09-21T22:58:53.446Z,9.06
2022-09-21T23:01:44.665Z,9.05
2022-09-21T23:04:13.171Z,9.02
2022-09-21T23:06:42.142Z,8.91
2022-09-21T23:09:13.467Z,8.81
2022-09-21T23:11:47.437Z,8.97
2022-09-21T23:14:17.036Z,8.97
2022-09-21T23:16:43.625Z,8.95
2022-09-21T23:19:15.449Z,8.95
2022-09-21T23:21:45.844Z,8.90
2022-09-21T23:24:12.920Z,8.89
2022-09-21T23:26:39.639Z,8.92
2022-09-21T23:29:12.035Z,8.92
2022-09-21T23:31:44.441Z,8.71
2022-09-21T23:34:12.658Z,8.88
2022-09-21T23:36:41.019Z,8.85
2022-09-21T23:39:11.459Z,8.83
2022-09-21T23:41:37.855Z,8.81
2022-09-21T23:44:05.900Z,8.77
2022-09-21T23:46:34.786Z,8.76
2022-09-21T23:49:01.883Z,8.64
2022-09-21T23:51:29.920Z,8.71
2022-09-21T23:53:57.323Z,8.67
2022-09-21T23:56:24.342Z,8.63
2022-09-21T23:58:51.066Z,8.68
